createdAt,value
2023-01-12T00:00:31.758Z,7.15
2023-01-12T00:01:31.742Z,7.21
2023-01-12T00:02:31.800Z,7.18
2023-01-12T00:03:31.767Z,7.11
2023-01-12T00:04:31.802Z,7.14
2023-01-12T00:05:31.714Z,7.04
2023-01-12T00:06:31.736Z,7.15
2023-01-12T00:07:31.729Z,7.09
2023-01-12T00:08:31.755Z,7.04
2023-01-12T00:09:31.801Z,7.12
2023-01-12T00:10:31.724Z,7.15
2023-01-12T00:11:31.698Z,7.09
2023-01-12T00:12:31.689Z,7.12
2023-01-12T00:13:31.696Z,7.01
2023-01-12T00:14:31.730Z,7.08
2023-01-12T00:15:31.652Z,6.93
2023-01-12T00:16:31.693Z,6.96
2023-01-12T00:17:31.655Z,7.07
2023-01-12T00:18:31.663Z,7.08
2023-01-12T00:19:31.697Z,7.07
2023-01-12T00:20:31.750Z,7.08
2023-01-12T00:21:31.653Z,7.04
2023-01-12T00:22:31.636Z,7.11
2023-01-12T00:23:31.638Z,7.09
2023-01-12T00:24:31.627Z,7.00
2023-01-12T00:25:31.730Z,7.08
2023-01-12T00:26:31.602Z,7.00
2023-01-12T00:27:31.632Z,6.97
2023-01-12T00:28:31.611Z,6.89
2023-01-12T00:29:31.633Z,7.00
2023-01-12T00:30:31.627Z,6.94
2023-01-12T00:31:31.643Z,6.96
2023-01-12T00:32:31.589Z,6.94
2023-01-12T00:33:31.582Z,7.01
2023-01-12T00:34:31.586Z,7.01
2023-01-12T00:35:31.629Z,7.00
2023-01-12T00:36:31.672Z,6.91
2023-01-12T00:37:31.584Z,6.97
2023-01-12T00:38:31.579Z,6.97
2023-01-12T00:39:31.546Z,6.99
2023-01-12T00:40:31.685Z,6.96
2023-01-12T00:41:31.539Z,6.93
2023-01-12T00:42:31.595Z,7.00
2023-01-12T00:43:31.538Z,7.01
2023-01-12T00:44:31.554Z,6.97
2023-01-12T00:45:31.556Z,6.90
2023-01-12T00:46:31.590Z,6.79
2023-01-12T00:47:31.549Z,6.94
2023-01-12T00:48:31.518Z,6.94
2023-01-12T00:49:31.508Z,6.97
2023-01-12T00:50:31.503Z,6.99
2023-01-12T00:51:31.505Z,6.99
2023-01-12T00:52:32.087Z,6.78
2023-01-12T00:53:31.499Z,6.87
2023-01-12T00:54:31.488Z,6.90
2023-01-12T00:55:31.479Z,6.94
2023-01-12T00:56:31.475Z,6.79
2023-01-12T00:57:31.520Z,6.89
2023-01-12T00:58:31.464Z,6.91
2023-01-12T00:59:31.487Z,6.87
2023-01-12T01:00:31.467Z,6.86
2023-01-12T01:01:31.615Z,6.89
2023-01-12T01:02:31.529Z,6.81
2023-01-12T01:03:31.513Z,6.82
2023-01-12T01:04:31.454Z,6.94
2023-01-12T01:05:31.437Z,6.97
2023-01-12T01:06:31.439Z,6.97
2023-01-12T01:07:31.441Z,6.90
2023-01-12T01:08:31.498Z,6.91
2023-01-12T01:09:31.427Z,6.97
2023-01-12T01:10:31.419Z,7.01
2023-01-12T01:11:31.415Z,6.94
2023-01-12T01:12:31.409Z,6.96
2023-01-12T01:13:31.428Z,6.99
2023-01-12T01:14:31.386Z,6.94
2023-01-12T01:15:31.456Z,6.97
2023-01-12T01:16:31.503Z,7.07
2023-01-12T01:17:31.390Z,6.96
2023-01-12T01:18:31.405Z,7.00
2023-01-12T01:19:31.385Z,6.99
2023-01-12T01:20:31.468Z,7.05
2023-01-12T01:21:31.373Z,7.01
2023-01-12T01:22:31.355Z,7.07
2023-01-12T01:23:31.378Z,7.04
2023-01-12T01:24:31.345Z,6.99
2023-01-12T01:25:31.367Z,7.01
2023-01-12T01:26:31.361Z,7.00
2023-01-12T01:27:31.347Z,7.05
2023-01-12T01:28:31.326Z,7.01
2023-01-12T01:29:31.408Z,6.99
2023-01-12T01:30:31.336Z,7.04
2023-01-12T01:31:31.391Z,7.05
2023-01-12T01:32:31.325Z,6.97
2023-01-12T01:33:31.330Z,7.01
2023-01-12T01:34:31.354Z,7.07
2023-01-12T01:35:31.313Z,6.97
2023-01-12T01:36:31.365Z,6.94
2023-01-12T01:37:31.318Z,6.93
2023-01-12T01:38:31.296Z,6.97
2023-01-12T01:39:31.288Z,7.04
2023-01-12T01:40:31.330Z,7.07
2023-01-12T01:41:31.277Z,7.01
2023-01-12T01:42:31.268Z,6.99
2023-01-12T01:43:31.264Z,7.01
2023-01-12T01:44:31.269Z,6.94
2023-01-12T01:45:31.314Z,7.08
2023-01-12T01:46:31.282Z,6.93
2023-01-12T01:47:31.262Z,7.04
2023-01-12T01:48:31.244Z,7.07
2023-01-12T01:49:31.252Z,7.00
2023-01-12T01:50:31.300Z,7.05
2023-01-12T01:51:31.264Z,6.99
2023-01-12T01:52:31.247Z,6.96
2023-01-12T01:53:31.202Z,6.94
2023-01-12T01:54:31.216Z,7.04
2023-01-12T01:55:31.248Z,6.99
2023-01-12T01:56:31.214Z,7.01
2023-01-12T01:57:31.223Z,6.91
2023-01-12T01:58:31.199Z,7.04
2023-01-12T01:59:31.206Z,7.04
2023-01-12T02:00:31.210Z,7.09
2023-01-12T02:01:31.348Z,7.01
2023-01-12T02:02:31.183Z,7.01
2023-01-12T02:03:33.997Z,6.94
2023-01-12T02:04:32.158Z,7.07
2023-01-12T02:05:31.137Z,6.97
2023-01-12T02:06:32.170Z,7.05
2023-01-12T02:07:31.157Z,6.97
2023-01-12T02:08:31.202Z,7.00
2023-01-12T02:09:31.158Z,6.91
2023-01-12T02:10:31.144Z,7.00
2023-01-12T02:11:31.153Z,7.01
2023-01-12T02:12:31.141Z,6.91
2023-01-12T02:13:31.171Z,6.94
2023-01-12T02:14:31.118Z,7.01
2023-01-12T02:15:31.111Z,6.94
2023-01-12T02:16:31.151Z,7.04
2023-01-12T02:17:31.127Z,6.96
2023-01-12T02:18:31.156Z,7.00
2023-01-12T02:19:31.103Z,6.99
2023-01-12T02:20:31.135Z,7.04
2023-01-12T02:21:31.087Z,7.01
2023-01-12T02:22:31.119Z,7.05
2023-01-12T02:23:31.075Z,7.00
2023-01-12T02:24:31.091Z,7.12
2023-01-12T02:25:31.151Z,7.12
2023-01-12T02:26:31.080Z,7.09
2023-01-12T02:27:31.070Z,7.08
2023-01-12T02:28:31.054Z,7.08
2023-01-12T02:29:31.048Z,7.05
2023-01-12T02:30:31.047Z,7.08
2023-01-12T02:31:31.113Z,7.07
2023-01-12T02:32:31.043Z,7.16
2023-01-12T02:33:31.019Z,7.14
2023-01-12T02:34:31.017Z,7.15
2023-01-12T02:35:31.092Z,7.09
2023-01-12T02:36:31.001Z,7.12
2023-01-12T02:37:31.001Z,7.01
2023-01-12T02:38:31.025Z,7.15
2023-01-12T02:39:31.017Z,7.11
2023-01-12T02:40:31.031Z,7.11
2023-01-12T02:41:30.990Z,7.11
2023-01-12T02:42:31.010Z,7.19
2023-01-12T02:43:30.971Z,7.18
2023-01-12T02:44:30.988Z,7.19
2023-01-12T02:45:30.988Z,7.19
2023-01-12T02:46:30.991Z,7.19
2023-01-12T02:47:30.988Z,7.16
2023-01-12T02:48:30.938Z,7.26
2023-01-12T02:49:30.944Z,7.19
2023-01-12T02:50:30.952Z,7.23
2023-01-12T02:51:30.955Z,7.27
2023-01-12T02:52:30.957Z,7.24
2023-01-12T02:53:30.932Z,7.23
2023-01-12T02:54:30.940Z,7.23
2023-01-12T02:55:30.948Z,7.21
2023-01-12T02:56:30.979Z,7.19
2023-01-12T02:57:30.925Z,7.16
2023-01-12T02:58:30.911Z,7.16
2023-01-12T02:59:30.924Z,7.12
2023-01-12T03:00:30.909Z,7.21
2023-01-12T03:01:30.968Z,7.18
2023-01-12T03:02:30.892Z,7.14
2023-01-12T03:03:30.963Z,7.23
2023-01-12T03:04:30.873Z,7.26
2023-01-12T03:05:30.872Z,7.11
2023-01-12T03:06:30.869Z,7.08
2023-01-12T03:07:30.925Z,7.27
2023-01-12T03:08:30.858Z,7.21
2023-01-12T03:09:30.870Z,7.16
2023-01-12T03:10:30.873Z,7.14
2023-01-12T03:11:30.841Z,7.11
2023-01-12T03:12:30.840Z,7.16
2023-01-12T03:13:30.859Z,7.09
2023-01-12T03:14:30.836Z,7.19
2023-01-12T03:15:30.862Z,7.14
2023-01-12T03:16:30.841Z,7.18
2023-01-12T03:17:30.823Z,7.16
2023-01-12T03:18:30.828Z,7.15
2023-01-12T03:19:30.894Z,7.09
2023-01-12T03:20:30.834Z,7.14
2023-01-12T03:21:30.802Z,7.14
2023-01-12T03:22:30.784Z,7.14
2023-01-12T03:23:30.814Z,7.09
2023-01-12T03:24:30.797Z,7.09
2023-01-12T03:25:30.801Z,7.01
2023-01-12T03:26:30.774Z,7.09
2023-01-12T03:27:30.754Z,7.08
2023-01-12T03:28:30.798Z,7.11
2023-01-12T03:29:30.804Z,7.11
2023-01-12T03:30:30.756Z,7.11
2023-01-12T03:31:30.762Z,7.14
2023-01-12T03:32:30.750Z,7.05
2023-01-12T03:33:30.737Z,7.08
2023-01-12T03:34:30.779Z,7.11
2023-01-12T03:35:30.714Z,7.04
2023-01-12T03:36:31.797Z,7.14
2023-01-12T03:37:30.702Z,7.07
2023-01-12T03:38:30.704Z,7.11
2023-01-12T03:39:30.698Z,7.16
2023-01-12T03:40:30.743Z,7.12
2023-01-12T03:41:30.736Z,7.11
2023-01-12T03:42:30.705Z,7.11
2023-01-12T03:43:30.677Z,7.14
2023-01-12T03:44:30.687Z,7.07
2023-01-12T03:45:30.677Z,7.11
2023-01-12T03:46:30.754Z,7.09
2023-01-12T03:47:30.731Z,7.08
2023-01-12T03:48:30.674Z,7.11
2023-01-12T03:49:30.668Z,7.05
2023-01-12T03:50:30.655Z,7.07
2023-01-12T03:51:30.651Z,7.07
2023-01-12T03:52:30.688Z,7.05
2023-01-12T03:53:30.661Z,7.16
2023-01-12T03:54:30.646Z,7.14
2023-01-12T03:55:30.629Z,7.08
2023-01-12T03:56:30.632Z,7.12
2023-01-12T03:57:30.815Z,7.14
2023-01-12T03:58:30.613Z,7.12
2023-01-12T03:59:30.608Z,7.11
2023-01-12T04:00:30.641Z,7.18
2023-01-12T04:01:30.733Z,7.16
2023-01-12T04:02:30.627Z,7.14
2023-01-12T04:03:31.689Z,7.07
2023-01-12T04:04:30.588Z,7.11
2023-01-12T04:05:30.656Z,7.11
2023-01-12T04:06:30.603Z,7.09
2023-01-12T04:07:30.632Z,7.11
2023-01-12T04:08:30.619Z,7.11
2023-01-12T04:09:30.567Z,7.21
2023-01-12T04:10:30.568Z,7.11
2023-01-12T04:11:30.583Z,7.14
2023-01-12T04:12:30.545Z,7.08
2023-01-12T04:13:30.587Z,7.09
2023-01-12T04:14:30.575Z,7.09
2023-01-12T04:15:30.547Z,7.27
2023-01-12T04:16:30.581Z,7.15
2023-01-12T04:17:30.546Z,7.16
2023-01-12T04:18:30.543Z,7.12
2023-01-12T04:19:30.649Z,7.12
2023-01-12T04:20:30.534Z,7.14
2023-01-12T04:21:30.517Z,7.23
2023-01-12T04:22:30.509Z,7.12
2023-01-12T04:23:30.495Z,7.14
2023-01-12T04:24:30.529Z,7.11
2023-01-12T04:25:30.591Z,7.12
2023-01-12T04:26:30.559Z,7.18
2023-01-12T04:27:30.505Z,7.09
2023-01-12T04:28:30.477Z,7.21
2023-01-12T04:29:30.480Z,7.15
2023-01-12T04:30:30.514Z,7.26
2023-01-12T04:31:30.492Z,7.19
2023-01-12T04:32:30.503Z,7.21
2023-01-12T04:33:30.452Z,7.26
2023-01-12T04:34:30.471Z,7.24
2023-01-12T04:35:30.481Z,7.24
2023-01-12T04:36:30.457Z,7.23
2023-01-12T04:37:30.450Z,7.24
2023-01-12T04:38:30.480Z,7.21
2023-01-12T04:39:30.447Z,7.21
2023-01-12T04:40:30.487Z,7.23
2023-01-12T04:41:30.413Z,7.30
2023-01-12T04:42:30.419Z,7.26
2023-01-12T04:43:30.404Z,7.24
2023-01-12T04:44:30.421Z,7.26
2023-01-12T04:45:30.536Z,7.26
2023-01-12T04:46:30.393Z,7.32
2023-01-12T04:47:30.403Z,7.26
2023-01-12T04:48:30.393Z,7.23
2023-01-12T04:49:30.399Z,7.18
2023-01-12T04:50:30.385Z,7.27
2023-01-12T04:51:30.426Z,7.21
2023-01-12T04:52:30.359Z,7.23
2023-01-12T04:53:30.420Z,7.24
2023-01-12T04:54:30.367Z,7.26
2023-01-12T04:55:30.368Z,7.30
2023-01-12T04:56:30.383Z,7.29
2023-01-12T04:57:30.358Z,7.24
2023-01-12T04:58:30.390Z,7.27
2023-01-12T04:59:30.335Z,7.26
2023-01-12T05:00:30.365Z,7.27
2023-01-12T05:01:30.500Z,7.23
2023-01-12T05:02:30.356Z,7.29
2023-01-12T05:03:30.338Z,7.23
2023-01-12T05:04:30.400Z,7.32
2023-01-12T05:05:30.323Z,7.24
2023-01-12T05:06:30.304Z,7.24
2023-01-12T05:07:30.414Z,7.26
2023-01-12T05:08:30.395Z,7.27
2023-01-12T05:09:30.310Z,7.32
2023-01-12T05:10:30.307Z,7.26
2023-01-12T05:11:30.280Z,7.26
2023-01-12T05:12:30.281Z,7.29
2023-01-12T05:13:30.323Z,7.33
2023-01-12T05:14:30.283Z,7.30
2023-01-12T05:15:30.367Z,7.29
2023-01-12T05:16:30.297Z,7.30
2023-01-12T05:17:30.281Z,7.29
2023-01-12T05:18:30.260Z,7.26
2023-01-12T05:19:30.258Z,7.36
2023-01-12T05:20:30.282Z,7.23
2023-01-12T05:21:30.234Z,7.27
2023-01-12T05:22:30.229Z,7.41
2023-01-12T05:23:30.216Z,7.41
2023-01-12T05:24:30.224Z,7.37
2023-01-12T05:25:30.330Z,7.34
2023-01-12T05:26:30.212Z,7.39
2023-01-12T05:27:30.201Z,7.41
2023-01-12T05:28:30.195Z,7.36
2023-01-12T05:29:30.204Z,7.33
2023-01-12T05:30:31.800Z,7.32
2023-01-12T05:31:31.244Z,7.44
2023-01-12T05:32:30.196Z,7.45
2023-01-12T05:33:30.201Z,7.29
2023-01-12T05:34:30.171Z,7.42
2023-01-12T05:35:30.182Z,7.41
2023-01-12T05:36:30.216Z,7.34
2023-01-12T05:37:30.172Z,7.45
2023-01-12T05:38:30.162Z,7.39
2023-01-12T05:39:30.143Z,7.44
2023-01-12T05:40:30.164Z,7.45
2023-01-12T05:41:30.177Z,7.47
2023-01-12T05:42:30.146Z,7.47
2023-01-12T05:43:30.139Z,7.37
2023-01-12T05:44:30.122Z,7.41
2023-01-12T05:45:30.151Z,7.33
2023-01-12T05:46:30.116Z,7.45
2023-01-12T05:47:30.162Z,7.32
2023-01-12T05:48:30.115Z,7.34
2023-01-12T05:49:30.118Z,7.41
2023-01-12T05:50:30.146Z,7.37
2023-01-12T05:51:30.094Z,7.32
2023-01-12T05:52:30.130Z,7.36
2023-01-12T05:53:30.078Z,7.36
2023-01-12T05:54:30.096Z,7.32
2023-01-12T05:55:30.078Z,7.41
2023-01-12T05:56:30.081Z,7.34
2023-01-12T05:57:30.151Z,7.29
2023-01-12T05:58:30.112Z,7.24
2023-01-12T05:59:30.084Z,7.33
2023-01-12T06:00:30.077Z,7.37
2023-01-12T06:01:30.141Z,7.23
2023-01-12T06:02:30.088Z,7.32
2023-01-12T06:03:30.137Z,7.29
2023-01-12T06:04:30.053Z,7.33
2023-01-12T06:05:30.109Z,7.29
2023-01-12T06:06:30.029Z,7.30
2023-01-12T06:07:30.061Z,7.45
2023-01-12T06:08:30.068Z,7.39
2023-01-12T06:09:30.122Z,7.34
2023-01-12T06:10:30.013Z,7.42
2023-01-12T06:11:30.049Z,7.33
2023-01-12T06:12:30.227Z,7.37
2023-01-12T06:13:29.985Z,7.32
2023-01-12T06:14:30.048Z,7.29
2023-01-12T06:15:29.997Z,7.37
2023-01-12T06:16:29.985Z,7.36
2023-01-12T06:17:29.981Z,7.39
2023-01-12T06:18:29.948Z,7.39
2023-01-12T06:19:29.996Z,7.33
2023-01-12T06:20:29.987Z,7.42
2023-01-12T06:21:29.954Z,7.39
2023-01-12T06:22:29.953Z,7.44
2023-01-12T06:23:35.139Z,7.42
2023-01-12T06:24:30.953Z,7.42
2023-01-12T06:25:30.001Z,7.48
2023-01-12T06:26:29.922Z,7.42
2023-01-12T06:27:29.986Z,7.50
2023-01-12T06:28:30.001Z,7.52
2023-01-12T06:29:29.928Z,7.51
2023-01-12T06:30:29.961Z,7.50
2023-01-12T06:31:30.023Z,7.48
2023-01-12T06:32:31.607Z,7.51
2023-01-12T06:33:29.900Z,7.47
2023-01-12T06:34:29.885Z,7.58
2023-01-12T06:35:29.961Z,7.47
2023-01-12T06:36:29.902Z,7.47
2023-01-12T06:37:29.886Z,7.44
2023-01-12T06:38:29.887Z,7.50
2023-01-12T06:39:29.882Z,7.47
2023-01-12T06:40:29.929Z,7.51
2023-01-12T06:41:30.008Z,7.52
2023-01-12T06:42:29.908Z,7.50
2023-01-12T06:43:29.863Z,7.42
2023-01-12T06:44:29.856Z,7.50
2023-01-12T06:45:29.897Z,7.48
2023-01-12T06:46:29.952Z,7.41
2023-01-12T06:47:29.830Z,7.51
2023-01-12T06:48:38.825Z,7.58
2023-01-12T06:49:30.810Z,7.48
2023-01-12T06:50:29.842Z,7.60
2023-01-12T06:51:29.876Z,7.44
2023-01-12T06:52:29.879Z,7.55
2023-01-12T06:53:29.812Z,7.52
2023-01-12T06:54:29.825Z,7.58
2023-01-12T06:55:29.793Z,7.58
2023-01-12T06:56:29.787Z,7.47
2023-01-12T06:57:29.847Z,7.55
2023-01-12T06:58:29.813Z,7.47
2023-01-12T06:59:29.789Z,7.45
2023-01-12T07:00:29.759Z,7.50
2023-01-12T07:01:29.884Z,7.47
2023-01-12T07:02:29.804Z,7.48
2023-01-12T07:03:29.795Z,7.45
2023-01-12T07:04:29.882Z,7.50
2023-01-12T07:05:29.740Z,7.44
2023-01-12T07:06:29.738Z,7.55
2023-01-12T07:07:29.742Z,7.54
2023-01-12T07:08:29.795Z,7.50
2023-01-12T07:09:29.731Z,7.54
2023-01-12T07:10:29.763Z,7.60
2023-01-12T07:11:29.737Z,7.50
2023-01-12T07:12:29.719Z,7.48
2023-01-12T07:13:29.829Z,7.54
2023-01-12T07:14:29.777Z,7.50
2023-01-12T07:15:29.716Z,7.50
2023-01-12T07:16:29.715Z,7.54
2023-01-12T07:17:29.716Z,7.54
2023-01-12T07:18:29.781Z,7.45
2023-01-12T07:19:29.756Z,7.47
2023-01-12T07:20:29.753Z,7.50
2023-01-12T07:21:29.678Z,7.45
2023-01-12T07:22:29.673Z,7.50
2023-01-12T07:23:29.671Z,7.55
2023-01-12T07:24:29.812Z,7.55
2023-01-12T07:25:29.661Z,7.51
2023-01-12T07:26:29.644Z,7.51
2023-01-12T07:27:29.667Z,7.44
2023-01-12T07:28:29.640Z,7.62
2023-01-12T07:29:29.693Z,7.55
2023-01-12T07:30:29.687Z,7.58
2023-01-12T07:31:29.682Z,7.48
2023-01-12T07:32:29.727Z,7.57
2023-01-12T07:33:29.639Z,7.50
2023-01-12T07:34:29.672Z,7.45
2023-01-12T07:35:29.611Z,7.55
2023-01-12T07:36:29.592Z,7.47
2023-01-12T07:37:29.660Z,7.55
2023-01-12T07:38:29.596Z,7.62
2023-01-12T07:39:29.647Z,7.74
2023-01-12T07:40:29.763Z,7.66
2023-01-12T07:41:29.597Z,7.69
2023-01-12T07:42:29.573Z,7.60
2023-01-12T07:43:29.602Z,7.62
2023-01-12T07:44:29.578Z,7.63
2023-01-12T07:45:29.616Z,7.58
2023-01-12T07:46:29.604Z,7.62
2023-01-12T07:47:29.563Z,7.57
2023-01-12T07:48:29.558Z,7.55
2023-01-12T07:49:29.543Z,7.58
2023-01-12T07:50:29.740Z,7.55
2023-01-12T07:51:29.575Z,7.60
2023-01-12T07:52:29.569Z,7.54
2023-01-12T07:53:29.538Z,7.63
2023-01-12T07:54:29.510Z,7.62
2023-01-12T07:55:29.545Z,7.67
2023-01-12T07:56:29.543Z,7.67
2023-01-12T07:57:29.538Z,7.60
2023-01-12T07:58:30.503Z,7.63
2023-01-12T07:59:29.521Z,7.70
2023-01-12T08:00:29.541Z,7.66
2023-01-12T08:01:29.585Z,7.70
2023-01-12T08:02:29.527Z,7.69
2023-01-12T08:03:29.482Z,7.58
2023-01-12T08:04:29.510Z,7.70
2023-01-12T08:05:29.599Z,7.62
2023-01-12T08:06:29.499Z,7.70
2023-01-12T08:07:29.507Z,7.71
2023-01-12T08:08:29.456Z,7.76
2023-01-12T08:09:29.446Z,7.70
2023-01-12T08:10:29.449Z,7.82
2023-01-12T08:11:29.444Z,7.70
2023-01-12T08:12:29.445Z,7.69
2023-01-12T08:13:29.480Z,7.77
2023-01-12T08:14:29.439Z,7.76
2023-01-12T08:15:29.432Z,7.71
2023-01-12T08:16:29.459Z,7.76
2023-01-12T08:17:29.410Z,7.71
2023-01-12T08:18:29.451Z,7.70
2023-01-12T08:19:29.488Z,7.74
2023-01-12T08:20:29.430Z,7.74
2023-01-12T08:21:29.392Z,7.70
2023-01-12T08:22:29.408Z,7.71
2023-01-12T08:23:29.414Z,7.73
2023-01-12T08:24:29.409Z,7.71
2023-01-12T08:25:29.385Z,7.77
2023-01-12T08:26:29.372Z,7.76
2023-01-12T08:27:29.387Z,7.69
2023-01-12T08:28:29.357Z,7.74
2023-01-12T08:29:29.402Z,7.82
2023-01-12T08:30:29.370Z,7.81
2023-01-12T08:31:29.370Z,7.73
2023-01-12T08:32:29.358Z,7.81
2023-01-12T08:33:29.349Z,7.79
2023-01-12T08:34:29.361Z,7.82
2023-01-12T08:35:29.334Z,7.85
2023-01-12T08:36:29.325Z,7.85
2023-01-12T08:37:29.332Z,7.82
2023-01-12T08:38:29.320Z,7.82
2023-01-12T08:39:29.317Z,7.82
2023-01-12T08:40:29.352Z,8.00
2023-01-12T08:41:29.295Z,7.86
2023-01-12T08:42:31.593Z,7.85
2023-01-12T08:43:30.429Z,7.96
2023-01-12T08:44:29.288Z,7.92
2023-01-12T08:45:29.396Z,7.85
2023-01-12T08:46:29.367Z,7.89
2023-01-12T08:47:30.262Z,7.81
2023-01-12T08:48:29.270Z,7.86
2023-01-12T08:49:29.270Z,7.88
2023-01-12T08:50:29.298Z,7.81
2023-01-12T08:51:29.289Z,7.94
2023-01-12T08:52:29.250Z,7.92
2023-01-12T08:53:29.238Z,7.91
2023-01-12T08:54:29.237Z,7.92
2023-01-12T08:55:29.257Z,8.00
2023-01-12T08:56:29.247Z,7.91
2023-01-12T08:57:29.222Z,7.88
2023-01-12T08:58:29.219Z,8.00
2023-01-12T08:59:29.206Z,7.89
2023-01-12T09:00:29.334Z,7.88
2023-01-12T09:01:29.289Z,8.00
2023-01-12T09:02:29.366Z,8.02
2023-01-12T09:03:29.245Z,8.00
2023-01-12T09:04:29.181Z,7.96
2023-01-12T09:05:29.218Z,8.04
2023-01-12T09:06:29.220Z,7.95
2023-01-12T09:07:29.172Z,8.00
2023-01-12T09:08:29.172Z,8.00
2023-01-12T09:09:29.165Z,8.04
2023-01-12T09:10:29.168Z,8.03
2023-01-12T09:11:29.557Z,7.92
2023-01-12T09:12:29.154Z,7.94
2023-01-12T09:13:29.171Z,8.10
2023-01-12T09:14:29.199Z,8.12
2023-01-12T09:15:29.133Z,8.07
2023-01-12T09:16:29.191Z,8.06
2023-01-12T09:17:29.184Z,8.09
2023-01-12T09:18:29.162Z,8.14
2023-01-12T09:19:29.138Z,8.14
2023-01-12T09:20:29.111Z,8.17
2023-01-12T09:21:29.140Z,8.06
2023-01-12T09:22:29.163Z,8.18
2023-01-12T09:23:29.104Z,8.06
2023-01-12T09:24:29.095Z,8.07
2023-01-12T09:25:29.083Z,8.12
2023-01-12T09:26:29.097Z,8.06
2023-01-12T09:27:29.077Z,8.07
2023-01-12T09:28:29.151Z,8.18
2023-01-12T09:29:29.098Z,8.03
2023-01-12T09:30:29.077Z,8.09
2023-01-12T09:31:29.082Z,8.14
2023-01-12T09:32:36.196Z,8.04
2023-01-12T09:33:31.071Z,8.09
2023-01-12T09:34:29.198Z,8.14
2023-01-12T09:35:29.058Z,8.18
2023-01-12T09:36:29.038Z,8.07
2023-01-12T09:37:29.057Z,8.17
2023-01-12T09:38:29.037Z,8.09
2023-01-12T09:39:29.057Z,8.07
2023-01-12T09:40:30.080Z,8.09
2023-01-12T09:41:29.106Z,8.14
2023-01-12T09:42:29.026Z,8.18
2023-01-12T09:43:29.087Z,8.00
2023-01-12T09:44:28.986Z,8.17
2023-01-12T09:45:29.107Z,8.12
2023-01-12T09:46:29.003Z,8.14
2023-01-12T09:47:28.989Z,8.22
2023-01-12T09:48:28.978Z,8.07
2023-01-12T09:49:28.997Z,8.10
2023-01-12T09:50:29.009Z,8.07
2023-01-12T09:51:28.970Z,8.21
2023-01-12T09:52:29.072Z,8.18
2023-01-12T09:53:29.106Z,8.17
2023-01-12T09:54:28.956Z,8.09
2023-01-12T09:55:29.011Z,8.21
2023-01-12T09:56:28.980Z,8.18
2023-01-12T09:57:29.448Z,8.10
2023-01-12T09:58:28.993Z,8.21
2023-01-12T09:59:28.934Z,8.22
2023-01-12T10:00:28.934Z,8.18
2023-01-12T10:01:30.191Z,8.22
2023-01-12T10:02:31.891Z,8.24
2023-01-12T10:03:29.037Z,8.21
2023-01-12T10:04:28.922Z,8.25
2023-01-12T10:05:38.833Z,8.36
2023-01-12T10:06:31.043Z,8.36
2023-01-12T10:07:28.900Z,8.29
2023-01-12T10:08:28.897Z,8.27
2023-01-12T10:09:28.885Z,8.28
2023-01-12T10:10:28.931Z,8.42
2023-01-12T10:11:28.887Z,8.25
2023-01-12T10:12:28.885Z,8.32
2023-01-12T10:13:28.860Z,8.32
2023-01-12T10:14:29.910Z,8.21
2023-01-12T10:15:29.872Z,8.22
2023-01-12T10:16:28.885Z,8.25
2023-01-12T10:17:30.048Z,8.31
2023-01-12T10:18:28.901Z,8.31
2023-01-12T10:19:28.835Z,8.43
2023-01-12T10:20:28.821Z,8.27
2023-01-12T10:21:28.827Z,8.31
2023-01-12T10:22:28.896Z,8.34
2023-01-12T10:23:28.812Z,8.27
2023-01-12T10:24:28.811Z,8.32
2023-01-12T10:25:28.834Z,8.34
2023-01-12T10:26:28.796Z,8.28
2023-01-12T10:27:28.841Z,8.40
2023-01-12T10:28:28.831Z,8.43
2023-01-12T10:29:28.806Z,8.45
2023-01-12T10:30:28.840Z,8.36
2023-01-12T10:31:28.902Z,8.28
2023-01-12T10:32:34.491Z,8.42
2023-01-12T10:33:30.810Z,8.32
2023-01-12T10:34:28.758Z,8.39
2023-01-12T10:35:28.751Z,8.40
2023-01-12T10:36:28.781Z,8.39
2023-01-12T10:37:28.745Z,8.47
2023-01-12T10:38:28.723Z,8.39
2023-01-12T10:39:29.388Z,8.46
2023-01-12T10:40:28.779Z,8.36
2023-01-12T10:41:28.729Z,8.37
2023-01-12T10:42:28.733Z,8.49
2023-01-12T10:43:28.713Z,8.43
2023-01-12T10:44:28.707Z,8.47
2023-01-12T10:45:28.721Z,8.43
2023-01-12T10:46:28.699Z,8.52
2023-01-12T10:47:28.715Z,8.46
2023-01-12T10:48:28.697Z,8.50
2023-01-12T10:49:28.715Z,8.52
2023-01-12T10:50:28.689Z,8.50
2023-01-12T10:51:28.691Z,8.43
2023-01-12T10:52:28.682Z,8.47
2023-01-12T10:53:28.682Z,8.52
2023-01-12T10:54:28.699Z,8.50
2023-01-12T10:55:28.668Z,8.49
2023-01-12T10:56:28.658Z,8.63
2023-01-12T10:57:28.697Z,8.50
2023-01-12T10:58:28.650Z,8.52
2023-01-12T10:59:28.665Z,8.60
2023-01-12T11:00:28.628Z,8.55
2023-01-12T11:01:28.735Z,8.65
2023-01-12T11:02:28.688Z,8.47
2023-01-12T11:03:28.612Z,8.65
2023-01-12T11:04:28.616Z,8.67
2023-01-12T11:05:28.630Z,8.70
2023-01-12T11:06:28.604Z,8.63
2023-01-12T11:07:28.608Z,8.71
2023-01-12T11:08:28.590Z,8.68
2023-01-12T11:09:28.642Z,8.64
2023-01-12T11:10:28.573Z,8.64
2023-01-12T11:11:28.652Z,8.61
2023-01-12T11:12:29.842Z,8.60
2023-01-12T11:13:29.577Z,8.58
2023-01-12T11:14:28.603Z,8.67
2023-01-12T11:15:28.660Z,8.71
2023-01-12T11:16:28.917Z,8.68
2023-01-12T11:17:28.532Z,8.61
2023-01-12T11:18:28.540Z,8.60
2023-01-12T11:19:28.551Z,8.70
2023-01-12T11:20:28.565Z,8.70
2023-01-12T11:21:28.560Z,8.73
2023-01-12T11:22:28.550Z,8.68
2023-01-12T11:23:28.536Z,8.75
2023-01-12T11:24:28.516Z,8.71
2023-01-12T11:25:28.518Z,8.75
2023-01-12T11:26:28.549Z,8.70
2023-01-12T11:27:28.542Z,8.78
2023-01-12T11:28:28.506Z,8.89
2023-01-12T11:29:28.501Z,8.75
2023-01-12T11:30:28.533Z,8.85
2023-01-12T11:31:28.508Z,8.86
2023-01-12T11:32:28.506Z,8.76
2023-01-12T11:33:28.472Z,8.80
2023-01-12T11:34:28.476Z,8.86
2023-01-12T11:35:28.446Z,8.85
2023-01-12T11:36:28.478Z,8.94
2023-01-12T11:37:28.527Z,8.79
2023-01-12T11:38:28.444Z,8.86
2023-01-12T11:39:28.451Z,8.85
2023-01-12T11:40:28.449Z,8.88
2023-01-12T11:41:28.498Z,8.93
2023-01-12T11:42:28.446Z,8.96
2023-01-12T11:43:28.435Z,8.96
2023-01-12T11:44:28.429Z,8.86
2023-01-12T11:45:28.423Z,8.86
2023-01-12T11:46:28.528Z,8.91
2023-01-12T11:47:28.398Z,8.82
2023-01-12T11:48:28.458Z,8.86
2023-01-12T11:49:28.398Z,8.89
2023-01-12T11:50:28.429Z,9.00
2023-01-12T11:51:28.376Z,8.93
2023-01-12T11:52:28.385Z,8.93
2023-01-12T11:53:28.410Z,8.93
2023-01-12T11:54:28.370Z,8.91
2023-01-12T11:55:28.358Z,8.93
2023-01-12T11:56:28.343Z,8.94
2023-01-12T11:57:28.341Z,8.91
2023-01-12T11:58:28.355Z,8.94
2023-01-12T11:59:28.409Z,9.00
2023-01-12T12:00:28.341Z,9.01
2023-01-12T12:01:28.362Z,8.94
2023-01-12T12:02:28.394Z,9.03
2023-01-12T12:03:28.406Z,8.98
2023-01-12T12:04:28.324Z,8.98
2023-01-12T12:05:28.399Z,8.96
2023-01-12T12:06:28.312Z,9.01
2023-01-12T12:07:28.285Z,8.96
2023-01-12T12:08:28.291Z,9.01
2023-01-12T12:09:28.290Z,9.00
2023-01-12T12:10:28.310Z,8.97
2023-01-12T12:11:28.280Z,9.08
2023-01-12T12:12:28.261Z,8.96
2023-01-12T12:13:28.267Z,8.94
2023-01-12T12:14:28.254Z,9.10
2023-01-12T12:15:28.429Z,8.98
2023-01-12T12:16:28.253Z,9.00
2023-01-12T12:17:28.258Z,8.94
2023-01-12T12:18:28.246Z,9.03
2023-01-12T12:19:28.223Z,9.03
2023-01-12T12:20:28.280Z,9.12
2023-01-12T12:21:28.219Z,9.00
2023-01-12T12:22:28.224Z,9.08
2023-01-12T12:23:28.243Z,9.04
2023-01-12T12:24:28.190Z,9.08
2023-01-12T12:25:28.279Z,9.16
2023-01-12T12:26:28.263Z,9.12
2023-01-12T12:27:28.189Z,9.08
2023-01-12T12:28:28.275Z,9.06
2023-01-12T12:29:28.216Z,9.17
2023-01-12T12:30:28.163Z,9.10
2023-01-12T12:31:28.231Z,9.08
2023-01-12T12:32:28.170Z,9.12
2023-01-12T12:33:28.168Z,9.17
2023-01-12T12:34:28.259Z,9.00
2023-01-12T12:35:28.169Z,9.19
2023-01-12T12:36:28.281Z,9.17
2023-01-12T12:37:28.126Z,9.16
2023-01-12T12:38:28.143Z,9.12
2023-01-12T12:39:28.114Z,9.04
2023-01-12T12:40:28.112Z,9.12
2023-01-12T12:41:28.115Z,9.06
2023-01-12T12:42:28.131Z,9.20
2023-01-12T12:43:28.106Z,9.12
2023-01-12T12:44:29.102Z,9.12
2023-01-12T12:45:28.093Z,9.10
2023-01-12T12:46:28.138Z,9.22
2023-01-12T12:47:28.105Z,9.17
2023-01-12T12:48:28.105Z,9.22
2023-01-12T12:49:28.081Z,9.19
2023-01-12T12:50:28.089Z,9.26
2023-01-12T12:51:28.086Z,9.24
2023-01-12T12:52:28.098Z,9.26
2023-01-12T12:53:28.067Z,9.22
2023-01-12T12:54:28.048Z,9.19
2023-01-12T12:55:28.046Z,9.10
2023-01-12T12:56:28.028Z,9.12
2023-01-12T12:57:28.023Z,9.10
2023-01-12T12:58:28.069Z,9.10
2023-01-12T12:59:28.042Z,9.13
2023-01-12T13:00:28.019Z,9.15
2023-01-12T13:01:28.063Z,9.13
2023-01-12T13:02:28.076Z,9.08
2023-01-12T13:03:28.017Z,9.19
2023-01-12T13:04:28.000Z,9.17
2023-01-12T13:05:27.984Z,9.10
2023-01-12T13:06:28.033Z,9.04
2023-01-12T13:07:27.959Z,9.20
2023-01-12T13:08:28.007Z,9.20
2023-01-12T13:09:28.122Z,9.03
2023-01-12T13:10:27.947Z,9.04
2023-01-12T13:11:27.944Z,9.06
2023-01-12T13:12:27.941Z,8.97
2023-01-12T13:13:27.938Z,9.15
2023-01-12T13:14:27.982Z,9.08
2023-01-12T13:15:27.948Z,9.13
2023-01-12T13:16:27.927Z,9.15
2023-01-12T13:17:27.978Z,9.12
2023-01-12T13:18:27.935Z,9.15